createdAt,value
2019-05-05T00:00:14.448Z,82.30
2019-05-05T00:01:14.791Z,82.40
2019-05-05T00:02:14.468Z,82.30
2019-05-05T00:03:14.795Z,81.88
2019-05-05T00:04:14.919Z,81.98
2019-05-05T00:05:15.507Z,82.20
2019-05-05T00:06:14.753Z,82.09
2019-05-05T00:07:14.875Z,82.30
2019-05-05T00:08:15.279Z,82.09
2019-05-05T00:09:14.738Z,82.30
2019-05-05T00:10:15.154Z,82.51
2019-05-05T00:11:15.422Z,82.71
2019-05-05T00:12:14.728Z,82.51
2019-05-05T00:13:14.940Z,82.82
2019-05-05T00:14:15.210Z,82.82
2019-05-05T00:15:14.647Z,82.71
2019-05-05T00:16:15.163Z,82.82
2019-05-05T00:17:14.497Z,83.03
2019-05-05T00:18:14.808Z,83.23
2019-05-05T00:19:19.124Z,83.34
2019-05-05T00:20:15.156Z,83.44
2019-05-05T00:21:15.148Z,83.54
2019-05-05T00:22:15.119Z,83.44
2019-05-05T00:23:14.630Z,83.54
2019-05-05T00:24:15.180Z,82.92
2019-05-05T00:25:14.390Z,83.23
2019-05-05T00:26:14.901Z,83.23
2019-05-05T00:27:14.942Z,83.54
2019-05-05T00:28:14.366Z,83.65
2019-05-05T00:29:14.888Z,83.75
2019-05-05T00:30:14.437Z,83.75
2019-05-05T00:31:15.056Z,83.86
2019-05-05T00:32:15.290Z,83.51
2019-05-05T00:33:14.489Z,83.40
2019-05-05T00:34:15.313Z,83.09
2019-05-05T00:35:14.877Z,83.20
2019-05-05T00:36:14.518Z,83.30
2019-05-05T00:37:15.213Z,83.30
2019-05-05T00:38:14.378Z,83.40
2019-05-05T00:39:14.985Z,83.40
2019-05-05T00:40:14.267Z,83.51
2019-05-05T00:41:14.794Z,83.51
2019-05-05T00:42:15.389Z,83.51
2019-05-05T00:43:14.753Z,83.54
2019-05-05T00:44:15.410Z,83.65
2019-05-05T00:45:14.777Z,83.75
2019-05-05T00:46:15.970Z,83.54
2019-05-05T00:47:14.577Z,83.54
2019-05-05T00:48:15.286Z,83.34
2019-05-05T00:49:14.501Z,83.54
2019-05-05T00:50:14.605Z,83.65
2019-05-05T00:51:15.093Z,83.75
2019-05-05T00:52:14.323Z,83.96
2019-05-05T00:53:14.617Z,84.17
2019-05-05T00:54:14.868Z,83.86
2019-05-05T00:55:15.171Z,83.54
2019-05-05T00:56:14.449Z,83.75
2019-05-05T00:57:15.015Z,84.06
2019-05-05T00:58:14.312Z,83.65
2019-05-05T00:59:14.701Z,83.75
2019-05-05T01:00:15.199Z,83.96
2019-05-05T01:01:14.452Z,84.06
2019-05-05T01:02:15.041Z,84.06
2019-05-05T01:03:15.273Z,84.17
2019-05-05T01:04:14.512Z,84.17
2019-05-05T01:05:14.909Z,84.27
2019-05-05T01:06:15.115Z,83.96
2019-05-05T01:07:14.288Z,84.17
2019-05-05T01:08:14.304Z,84.48
2019-05-05T01:09:14.862Z,84.27
2019-05-05T01:10:14.303Z,84.27
2019-05-05T01:11:14.485Z,84.27
2019-05-05T01:12:14.951Z,84.17
2019-05-05T01:13:15.206Z,84.17
2019-05-05T01:14:14.460Z,84.06
2019-05-05T01:15:15.017Z,84.06
2019-05-05T01:16:15.240Z,84.03
2019-05-05T01:17:14.711Z,83.82
2019-05-05T01:18:15.237Z,83.72
2019-05-05T01:19:15.002Z,83.72
2019-05-05T01:20:14.647Z,83.72
2019-05-05T01:21:15.018Z,83.61
2019-05-05T01:22:14.437Z,83.92
2019-05-05T01:23:15.029Z,83.92
2019-05-05T01:24:14.426Z,83.82
2019-05-05T01:25:14.784Z,83.82
2019-05-05T01:26:14.352Z,83.82
2019-05-05T01:27:14.721Z,83.82
2019-05-05T01:28:14.356Z,83.72
2019-05-05T01:29:14.639Z,83.72
2019-05-05T01:30:15.125Z,83.82
2019-05-05T01:31:14.672Z,83.92
2019-05-05T01:32:15.228Z,84.03
2019-05-05T01:33:14.512Z,83.72
2019-05-05T01:34:15.126Z,83.72
2019-05-05T01:35:14.451Z,83.23
2019-05-05T01:36:14.879Z,83.13
2019-05-05T01:37:15.174Z,83.13
2019-05-05T01:38:14.238Z,83.44
2019-05-05T01:39:14.720Z,83.44
2019-05-05T01:40:14.231Z,83.65
2019-05-05T01:41:14.733Z,83.75
2019-05-05T01:42:14.326Z,83.86
2019-05-05T01:43:14.612Z,83.75
2019-05-05T01:44:15.124Z,83.86
2019-05-05T01:45:14.928Z,83.65
2019-05-05T01:46:14.342Z,83.65
2019-05-05T01:47:14.758Z,83.65
2019-05-05T01:48:14.295Z,83.75
2019-05-05T01:49:14.643Z,83.75
2019-05-05T01:50:18.334Z,83.86
2019-05-05T01:51:14.389Z,83.75
2019-05-05T01:52:14.944Z,83.86
2019-05-05T01:53:15.157Z,84.06
2019-05-05T01:54:14.516Z,83.96
2019-05-05T01:55:14.705Z,84.06
2019-05-05T01:56:15.275Z,83.86
2019-05-05T01:57:14.786Z,83.86
2019-05-05T01:58:15.174Z,83.96
2019-05-05T01:59:14.402Z,83.86
2019-05-05T02:00:14.823Z,83.75
2019-05-05T02:01:15.161Z,83.86
2019-05-05T02:02:14.652Z,83.34
2019-05-05T02:03:14.736Z,83.23
2019-05-05T02:04:14.479Z,83.44
2019-05-05T02:05:14.780Z,83.65
2019-05-05T02:06:14.240Z,83.65
2019-05-05T02:07:14.550Z,83.23
2019-05-05T02:08:15.247Z,83.13
2019-05-05T02:09:15.719Z,83.44
2019-05-05T02:10:15.083Z,83.75
2019-05-05T02:11:13.075Z,83.75
2019-05-05T02:12:13.087Z,83.75
2019-05-05T02:13:13.391Z,83.75
2019-05-05T02:14:15.434Z,83.65
2019-05-05T02:15:15.014Z,83.44
2019-05-05T02:16:14.936Z,83.44
2019-05-05T02:17:14.382Z,83.65
2019-05-05T02:18:14.785Z,83.80
2019-05-05T02:19:14.301Z,83.90
2019-05-05T02:20:14.568Z,83.80
2019-05-05T02:21:14.289Z,83.69
2019-05-05T02:22:14.625Z,83.80
2019-05-05T02:23:12.809Z,83.90
2019-05-05T02:24:14.449Z,84.00
2019-05-05T02:25:14.579Z,84.21
2019-05-05T02:26:12.769Z,84.11
2019-05-05T02:27:14.541Z,84.21
2019-05-05T02:28:14.782Z,84.21
2019-05-05T02:29:14.231Z,84.00
2019-05-05T02:30:15.915Z,83.80
2019-05-05T02:31:12.771Z,84.00
2019-05-05T02:32:12.714Z,83.80
2019-05-05T02:33:15.463Z,83.80
2019-05-05T02:34:12.698Z,84.00
2019-05-05T02:35:16.281Z,84.00
2019-05-05T02:36:15.745Z,84.11
2019-05-05T02:37:15.899Z,84.11
2019-05-05T02:38:15.387Z,84.21
2019-05-05T02:39:15.720Z,84.31
2019-05-05T02:40:15.690Z,84.42
2019-05-05T02:41:15.225Z,84.63
2019-05-05T02:42:14.614Z,84.11
2019-05-05T02:43:15.077Z,84.21
2019-05-05T02:44:15.226Z,84.31
2019-05-05T02:45:15.337Z,84.21
2019-05-05T02:46:14.395Z,84.21
2019-05-05T02:47:15.368Z,84.21
2019-05-05T02:48:15.248Z,84.21
2019-05-05T02:49:14.938Z,84.11
2019-05-05T02:50:15.465Z,84.21
2019-05-05T02:51:15.149Z,84.11
2019-05-05T02:52:14.930Z,84.11
2019-05-05T02:53:14.268Z,83.90
2019-05-05T02:54:13.673Z,83.90
2019-05-05T02:55:14.557Z,84.11
2019-05-05T02:56:14.527Z,84.11
2019-05-05T02:57:13.470Z,84.11
2019-05-05T02:58:14.024Z,83.90
2019-05-05T02:59:14.624Z,83.80
2019-05-05T03:00:13.463Z,83.90
2019-05-05T03:01:13.972Z,83.90
2019-05-05T03:02:14.343Z,83.90
2019-05-05T03:03:13.502Z,83.80
2019-05-05T03:04:14.149Z,83.80
2019-05-05T03:05:14.139Z,84.00
2019-05-05T03:06:14.366Z,83.90
2019-05-05T03:07:14.101Z,83.80
2019-05-05T03:08:13.895Z,84.00
2019-05-05T03:09:13.780Z,84.11
2019-05-05T03:10:14.114Z,84.00
2019-05-05T03:11:14.340Z,83.69
2019-05-05T03:12:12.287Z,83.80
2019-05-05T03:13:13.943Z,83.90
2019-05-05T03:14:14.216Z,83.80
2019-05-05T03:15:14.213Z,83.69
2019-05-05T03:16:14.056Z,83.90
2019-05-05T03:17:14.118Z,83.48
2019-05-05T03:18:13.449Z,83.37
2019-05-05T03:19:14.118Z,83.37
2019-05-05T03:20:12.179Z,83.48
2019-05-05T03:21:14.026Z,83.48
2019-05-05T03:22:14.144Z,83.69
2019-05-05T03:23:13.654Z,83.69
2019-05-05T03:24:14.192Z,83.69
2019-05-05T03:25:13.626Z,83.37
2019-05-05T03:26:13.927Z,83.20
2019-05-05T03:27:14.198Z,83.62
2019-05-05T03:28:13.599Z,83.73
2019-05-05T03:29:13.842Z,83.73
2019-05-05T03:30:15.223Z,83.94
2019-05-05T03:31:15.499Z,84.21
2019-05-05T03:32:15.542Z,84.00
2019-05-05T03:33:15.665Z,83.69
2019-05-05T03:34:12.041Z,83.80
2019-05-05T03:35:13.552Z,83.90
2019-05-05T03:36:13.513Z,83.90
2019-05-05T03:37:11.988Z,84.11
2019-05-05T03:38:14.124Z,83.80
2019-05-05T03:39:12.015Z,83.58
2019-05-05T03:40:11.964Z,83.48
2019-05-05T03:41:13.583Z,83.27
2019-05-05T03:42:13.853Z,83.17
2019-05-05T03:43:11.944Z,83.06
2019-05-05T03:44:14.002Z,83.06
2019-05-05T03:45:11.984Z,83.06
2019-05-05T03:46:13.577Z,83.27
2019-05-05T03:47:13.537Z,83.48
2019-05-05T03:48:13.591Z,83.69
2019-05-05T03:49:13.760Z,83.58
2019-05-05T03:50:11.934Z,83.69
2019-05-05T03:51:18.761Z,83.58
2019-05-05T03:52:13.887Z,83.69
2019-05-05T03:53:13.871Z,83.69
2019-05-05T03:54:11.810Z,83.58
2019-05-05T03:55:13.688Z,83.58
2019-05-05T03:56:13.937Z,83.27
2019-05-05T03:57:13.590Z,83.06
2019-05-05T03:58:11.787Z,83.17
2019-05-05T03:59:13.871Z,83.06
2019-05-05T04:00:11.763Z,83.37
2019-05-05T04:01:11.749Z,83.27
2019-05-05T04:02:11.731Z,83.27
2019-05-05T04:03:11.728Z,83.06
2019-05-05T04:04:13.463Z,83.17
2019-05-05T04:05:11.723Z,82.96
2019-05-05T04:06:11.695Z,83.00
2019-05-05T04:07:13.818Z,83.00
2019-05-05T04:08:11.672Z,83.10
2019-05-05T04:09:13.657Z,83.00
2019-05-05T04:10:11.656Z,83.10
2019-05-05T04:11:11.639Z,83.20
2019-05-05T04:12:13.562Z,83.20
2019-05-05T04:13:13.799Z,83.31
2019-05-05T04:14:11.593Z,83.52
2019-05-05T04:15:11.605Z,83.31
2019-05-05T04:16:13.495Z,83.31
2019-05-05T04:17:11.564Z,83.20
2019-05-05T04:18:11.558Z,82.65
2019-05-05T04:19:11.533Z,82.68
2019-05-05T04:20:11.574Z,82.96
2019-05-05T04:21:11.549Z,82.37
2019-05-05T04:22:13.412Z,82.89
2019-05-05T04:23:11.533Z,83.20
2019-05-05T04:24:11.685Z,83.37
2019-05-05T04:25:11.498Z,82.86
2019-05-05T04:26:11.505Z,82.54
2019-05-05T04:27:11.478Z,82.75
2019-05-05T04:28:13.544Z,82.86
2019-05-05T04:29:11.421Z,82.44
2019-05-05T04:30:11.451Z,82.65
2019-05-05T04:31:13.431Z,82.58
2019-05-05T04:32:11.391Z,82.58
2019-05-05T04:33:11.380Z,83.10
2019-05-05T04:34:13.398Z,82.89
2019-05-05T04:35:11.367Z,82.86
2019-05-05T04:36:14.329Z,82.75
2019-05-05T04:37:11.362Z,82.96
2019-05-05T04:38:11.331Z,82.86
2019-05-05T04:39:11.319Z,82.96
2019-05-05T04:40:11.320Z,82.44
2019-05-05T04:41:11.320Z,82.65
2019-05-05T04:42:11.281Z,82.75
2019-05-05T04:43:11.295Z,82.86
2019-05-05T04:44:11.270Z,83.06
2019-05-05T04:45:11.250Z,82.96
2019-05-05T04:46:11.259Z,82.65
2019-05-05T04:47:11.239Z,82.75
2019-05-05T04:48:11.232Z,82.34
2019-05-05T04:49:11.235Z,82.44
2019-05-05T04:50:11.209Z,82.86
2019-05-05T04:51:11.211Z,82.65
2019-05-05T04:52:11.178Z,82.44
2019-05-05T04:53:11.196Z,82.13
2019-05-05T04:54:11.158Z,82.34
2019-05-05T04:55:11.166Z,82.23
2019-05-05T04:56:11.168Z,82.23
2019-05-05T04:57:11.126Z,82.23
2019-05-05T04:58:11.130Z,82.23
2019-05-05T04:59:11.097Z,82.54
2019-05-05T05:00:11.107Z,82.23
2019-05-05T05:01:11.114Z,82.03
2019-05-05T05:02:11.091Z,82.23
2019-05-05T05:03:11.058Z,82.23
2019-05-05T05:04:11.048Z,82.23
2019-05-05T05:05:11.037Z,82.23
2019-05-05T05:06:11.074Z,81.92
2019-05-05T05:07:13.503Z,82.13
2019-05-05T05:08:11.027Z,82.23
2019-05-05T05:09:10.998Z,82.54
2019-05-05T05:10:10.987Z,82.34
2019-05-05T05:11:10.975Z,82.30
2019-05-05T05:12:10.984Z,82.09
2019-05-05T05:13:11.023Z,81.98
2019-05-05T05:14:10.935Z,82.09
2019-05-05T05:15:10.946Z,81.88
2019-05-05T05:16:10.930Z,81.57
2019-05-05T05:17:10.945Z,81.46
2019-05-05T05:18:11.005Z,81.57
2019-05-05T05:19:10.900Z,81.98
2019-05-05T05:20:10.875Z,81.67
2019-05-05T05:21:10.897Z,81.57
2019-05-05T05:22:10.874Z,81.15
2019-05-05T05:23:10.875Z,81.77
2019-05-05T05:24:10.824Z,81.57
2019-05-05T05:25:10.928Z,81.46
2019-05-05T05:26:10.803Z,81.46
2019-05-05T05:27:10.798Z,81.36
2019-05-05T05:28:10.835Z,81.46
2019-05-05T05:29:10.776Z,81.67
2019-05-05T05:30:10.773Z,81.57
2019-05-05T05:31:10.754Z,81.46
2019-05-05T05:32:10.773Z,81.46
2019-05-05T05:33:10.764Z,81.15
2019-05-05T05:34:10.744Z,81.15
2019-05-05T05:35:10.704Z,80.94
2019-05-05T05:36:10.694Z,80.84
2019-05-05T05:37:10.683Z,80.80
2019-05-05T05:38:10.684Z,80.43
2019-05-05T05:39:10.686Z,80.74
2019-05-05T05:40:10.662Z,80.84
2019-05-05T05:41:10.695Z,81.05
2019-05-05T05:42:10.648Z,80.80
2019-05-05T05:43:10.633Z,80.70
2019-05-05T05:44:10.637Z,80.80
2019-05-05T05:45:10.621Z,80.60
2019-05-05T05:46:10.591Z,80.18
2019-05-05T05:47:10.613Z,80.18
2019-05-05T05:48:10.581Z,80.49
2019-05-05T05:49:10.623Z,80.29
2019-05-05T05:50:10.661Z,79.97
2019-05-05T05:51:10.538Z,80.18
2019-05-05T05:52:15.791Z,80.15
2019-05-05T05:53:11.522Z,79.52
2019-05-05T05:54:10.511Z,79.21
2019-05-05T05:55:10.512Z,78.72
2019-05-05T05:56:10.503Z,79.45
2019-05-05T05:57:10.470Z,79.87
2019-05-05T05:58:10.538Z,79.97
2019-05-05T05:59:10.547Z,79.83
2019-05-05T06:00:10.439Z,79.62
2019-05-05T06:01:10.461Z,79.10
2019-05-05T06:02:13.474Z,79.10
2019-05-05T06:03:11.428Z,78.89
2019-05-05T06:04:10.457Z,78.96
2019-05-05T06:05:10.457Z,79.06
2019-05-05T06:06:10.370Z,79.06
2019-05-05T06:07:10.379Z,78.96
2019-05-05T06:08:10.369Z,79.06
2019-05-05T06:09:10.349Z,79.06
2019-05-05T06:10:21.494Z,78.86
2019-05-05T06:11:11.318Z,78.75
2019-05-05T06:12:10.308Z,79.17
2019-05-05T06:13:10.401Z,79.38
2019-05-05T06:14:10.343Z,79.27
2019-05-05T06:15:10.271Z,78.86
2019-05-05T06:16:10.258Z,78.86
2019-05-05T06:17:10.256Z,78.44
2019-05-05T06:18:10.238Z,78.61
2019-05-05T06:19:10.423Z,78.03
2019-05-05T06:20:10.248Z,78.03
2019-05-05T06:21:10.294Z,78.17
2019-05-05T06:22:10.490Z,79.10
2019-05-05T06:23:10.197Z,79.41
2019-05-05T06:24:10.194Z,79.41
2019-05-05T06:25:10.363Z,79.10
2019-05-05T06:26:10.196Z,79.31
2019-05-05T06:27:10.138Z,79.38
2019-05-05T06:28:10.145Z,79.17
2019-05-05T06:29:10.631Z,79.06
2019-05-05T06:30:10.115Z,78.75
2019-05-05T06:31:10.117Z,77.86
2019-05-05T06:32:10.150Z,78.27
2019-05-05T06:33:10.096Z,79.31
2019-05-05T06:34:10.141Z,78.52
2019-05-05T06:35:10.348Z,78.79
2019-05-05T06:36:10.234Z,78.79
2019-05-05T06:37:10.118Z,78.72
2019-05-05T06:38:10.074Z,79.14
2019-05-05T06:39:10.094Z,79.35
2019-05-05T06:40:10.025Z,79.55
2019-05-05T06:41:10.047Z,78.93
2019-05-05T06:42:10.022Z,78.62
2019-05-05T06:43:10.045Z,79.14
2019-05-05T06:44:09.996Z,78.62
2019-05-05T06:45:09.985Z,78.93
2019-05-05T06:46:10.085Z,79.14
2019-05-05T06:47:09.978Z,79.10
2019-05-05T06:48:09.982Z,79.10
2019-05-05T06:49:09.912Z,79.00
2019-05-05T06:50:09.952Z,79.21
2019-05-05T06:51:10.013Z,79.00
2019-05-05T06:52:09.995Z,78.44
2019-05-05T06:53:09.894Z,77.82
2019-05-05T06:54:09.885Z,77.82
2019-05-05T06:55:09.991Z,77.30
2019-05-05T06:56:09.935Z,77.82
2019-05-05T06:57:10.105Z,77.30
2019-05-05T06:58:10.054Z,77.51
2019-05-05T06:59:09.816Z,77.61
2019-05-05T07:00:10.044Z,76.99
2019-05-05T07:01:09.814Z,76.89
2019-05-05T07:02:09.761Z,77.55
2019-05-05T07:03:09.787Z,77.75
2019-05-05T07:04:09.773Z,77.65
2019-05-05T07:05:09.805Z,77.13
2019-05-05T07:06:09.734Z,77.75
2019-05-05T07:07:09.840Z,77.96
2019-05-05T07:08:10.292Z,78.38
2019-05-05T07:09:09.702Z,77.86
2019-05-05T07:10:09.761Z,77.75
2019-05-05T07:11:09.771Z,77.75
2019-05-05T07:12:11.157Z,77.55
2019-05-05T07:13:09.654Z,77.30
2019-05-05T07:14:09.762Z,77.51
2019-05-05T07:15:09.861Z,77.40
2019-05-05T07:16:12.238Z,77.09
2019-05-05T07:17:09.620Z,76.68
2019-05-05T07:18:09.601Z,76.99
2019-05-05T07:19:09.620Z,77.20
2019-05-05T07:20:09.570Z,77.51
2019-05-05T07:21:09.931Z,77.40
2019-05-05T07:22:10.769Z,77.09
2019-05-05T07:23:09.910Z,77.34
2019-05-05T07:24:09.580Z,77.86
2019-05-05T07:25:09.677Z,77.13
2019-05-05T07:26:09.577Z,76.89
2019-05-05T07:27:10.287Z,76.68
2019-05-05T07:28:09.479Z,76.47
2019-05-05T07:29:09.542Z,76.68
2019-05-05T07:30:13.595Z,75.40
2019-05-05T07:31:09.733Z,75.19
2019-05-05T07:32:10.030Z,74.88
2019-05-05T07:33:09.503Z,74.46
2019-05-05T07:34:09.447Z,74.67
2019-05-05T07:35:16.406Z,74.80
2019-05-05T07:36:09.377Z,75.43
2019-05-05T07:37:09.386Z,75.22
2019-05-05T07:38:09.376Z,75.54
2019-05-05T07:39:09.423Z,75.43
2019-05-05T07:40:09.357Z,75.32
2019-05-05T07:41:09.325Z,75.74
2019-05-05T07:42:09.413Z,75.50
2019-05-05T07:43:09.325Z,75.29
2019-05-05T07:44:22.269Z,74.67
2019-05-05T07:45:20.321Z,74.01
2019-05-05T07:46:10.355Z,73.70
2019-05-05T07:47:09.263Z,72.74
2019-05-05T07:48:09.265Z,72.53
2019-05-05T07:49:09.247Z,72.01
2019-05-05T07:50:24.671Z,72.22
2019-05-05T07:51:10.215Z,72.22
2019-05-05T07:52:09.518Z,72.22
2019-05-05T07:53:14.491Z,71.91
2019-05-05T07:54:10.184Z,72.22
2019-05-05T07:55:09.174Z,72.53
2019-05-05T07:56:09.172Z,72.49
2019-05-05T07:57:09.157Z,72.05
2019-05-05T07:58:09.154Z,72.05
2019-05-05T07:59:09.339Z,71.70
2019-05-05T08:00:09.123Z,70.76
2019-05-05T08:01:09.105Z,70.76
2019-05-05T08:02:09.093Z,70.76
2019-05-05T08:03:09.090Z,71.11
2019-05-05T08:04:09.093Z,70.56
2019-05-05T08:05:09.074Z,71.18
2019-05-05T08:06:09.059Z,70.56
2019-05-05T08:07:09.053Z,70.46
2019-05-05T08:08:09.037Z,70.46
2019-05-05T08:09:09.082Z,70.25
2019-05-05T08:10:09.013Z,70.25
2019-05-05T08:11:09.006Z,70.56
2019-05-05T08:12:08.991Z,70.56
2019-05-05T08:13:08.974Z,70.76
2019-05-05T08:14:08.982Z,70.67
2019-05-05T08:15:08.952Z,70.21
2019-05-05T08:16:09.013Z,69.29
2019-05-05T08:17:08.937Z,69.42
2019-05-05T08:18:08.922Z,69.94
2019-05-05T08:19:08.930Z,70.15
2019-05-05T08:20:08.902Z,69.90
2019-05-05T08:21:08.891Z,69.49
2019-05-05T08:22:08.881Z,69.39
2019-05-05T08:23:09.004Z,70.01
2019-05-05T08:24:08.879Z,69.08
2019-05-05T08:25:08.875Z,69.60
2019-05-05T08:26:08.843Z,69.04
2019-05-05T08:27:08.830Z,68.84
2019-05-05T08:28:08.813Z,68.43
2019-05-05T08:29:08.812Z,68.63
2019-05-05T08:30:08.991Z,68.74
2019-05-05T08:31:08.781Z,68.77
2019-05-05T08:32:08.770Z,69.39
2019-05-05T08:33:08.823Z,69.46
2019-05-05T08:34:08.749Z,69.04
2019-05-05T08:35:09.619Z,68.74
2019-05-05T08:36:08.728Z,68.04
2019-05-05T08:37:08.717Z,68.63
2019-05-05T08:38:08.711Z,68.22
2019-05-05T08:39:08.698Z,67.91
2019-05-05T08:40:08.723Z,68.12
2019-05-05T08:41:08.670Z,68.01
2019-05-05T08:42:08.670Z,68.32
2019-05-05T08:43:08.651Z,68.29
2019-05-05T08:44:08.639Z,66.53
2019-05-05T08:45:08.648Z,66.56
2019-05-05T08:46:08.621Z,67.70
2019-05-05T08:47:08.609Z,67.60
2019-05-05T08:48:08.599Z,67.57
2019-05-05T08:49:08.597Z,67.46
2019-05-05T08:50:08.588Z,66.60
2019-05-05T08:51:08.580Z,65.57
2019-05-05T08:52:08.551Z,65.05
2019-05-05T08:53:08.662Z,64.95
2019-05-05T08:54:08.529Z,66.50
2019-05-05T08:55:08.520Z,65.88
2019-05-05T08:56:08.518Z,65.99
2019-05-05T08:57:08.539Z,67.02
2019-05-05T08:58:08.498Z,67.67
2019-05-05T08:59:08.477Z,68.08
2019-05-05T09:00:08.467Z,67.67
2019-05-05T09:01:08.447Z,67.88
2019-05-05T09:02:08.459Z,68.08
2019-05-05T09:03:08.456Z,67.95
2019-05-05T09:04:08.627Z,67.57
2019-05-05T09:05:08.417Z,68.08
2019-05-05T09:06:08.407Z,67.85
2019-05-05T09:07:08.414Z,66.81
2019-05-05T09:08:08.386Z,65.99
2019-05-05T09:09:08.376Z,65.99
2019-05-05T09:10:08.356Z,65.54
2019-05-05T09:11:09.112Z,65.44
2019-05-05T09:12:08.356Z,64.92
2019-05-05T09:13:08.326Z,64.51
2019-05-05T09:14:08.325Z,64.27
2019-05-05T09:15:08.306Z,63.89
2019-05-05T09:16:08.303Z,64.81
2019-05-05T09:17:08.304Z,64.51
2019-05-05T09:18:08.315Z,64.37
2019-05-05T09:19:08.255Z,64.17
2019-05-05T09:20:08.257Z,64.89
2019-05-05T09:21:08.237Z,64.34
2019-05-05T09:22:08.765Z,63.31
2019-05-05T09:23:08.247Z,62.76
2019-05-05T09:24:08.203Z,62.46
2019-05-05T09:25:08.186Z,62.66
2019-05-05T09:26:08.176Z,62.43
2019-05-05T09:27:08.190Z,61.19
2019-05-05T09:28:08.305Z,61.47
2019-05-05T09:29:08.155Z,61.65
2019-05-05T09:30:08.143Z,60.72
2019-05-05T09:31:08.194Z,60.05
2019-05-05T09:32:08.125Z,60.67
2019-05-05T09:33:08.125Z,61.01
2019-05-05T09:34:08.094Z,61.40
2019-05-05T09:35:08.154Z,61.50
2019-05-05T09:36:08.079Z,60.57
2019-05-05T09:37:08.062Z,60.47
2019-05-05T09:38:08.158Z,59.77
2019-05-05T09:39:08.044Z,59.80
2019-05-05T09:40:08.035Z,60.65
2019-05-05T09:41:08.013Z,61.38
2019-05-05T09:42:08.005Z,61.48
2019-05-05T09:43:08.033Z,61.35
2019-05-05T09:44:08.000Z,61.55
2019-05-05T09:45:08.033Z,61.04
2019-05-05T09:46:07.961Z,60.91
2019-05-05T09:47:07.978Z,61.55
2019-05-05T09:48:08.115Z,61.35
2019-05-05T09:49:07.943Z,61.04
2019-05-05T09:50:07.914Z,61.24
2019-05-05T09:51:07.927Z,61.55
2019-05-05T09:52:07.900Z,61.52
2019-05-05T09:53:07.902Z,60.80
2019-05-05T09:54:14.171Z,60.70
2019-05-05T09:55:08.871Z,60.70
2019-05-05T09:56:07.851Z,61.24
2019-05-05T09:57:07.836Z,60.80
2019-05-05T09:58:07.861Z,60.31
2019-05-05T09:59:07.866Z,59.80
2019-05-05T10:00:07.810Z,59.18
2019-05-05T10:01:07.792Z,60.31
2019-05-05T10:02:07.930Z,60.49
2019-05-05T10:03:07.782Z,60.67
2019-05-05T10:04:07.798Z,60.88
2019-05-05T10:05:07.779Z,60.67
2019-05-05T10:06:07.802Z,60.57
2019-05-05T10:07:07.728Z,60.57
2019-05-05T10:08:07.721Z,60.67
2019-05-05T10:09:08.453Z,59.25
2019-05-05T10:10:07.697Z,59.98
2019-05-05T10:11:07.702Z,59.84
2019-05-05T10:12:07.974Z,59.12
2019-05-05T10:13:07.661Z,59.12
2019-05-05T10:14:07.671Z,58.50
2019-05-05T10:15:07.828Z,58.71
2019-05-05T10:16:07.631Z,57.47
2019-05-05T10:17:07.650Z,58.06
2019-05-05T10:18:07.649Z,57.32
2019-05-05T10:19:07.603Z,56.52
2019-05-05T10:20:07.581Z,56.90
2019-05-05T10:21:07.579Z,57.01
2019-05-05T10:22:07.710Z,56.88
2019-05-05T10:23:07.571Z,56.16
2019-05-05T10:24:07.561Z,56.39
2019-05-05T10:25:07.551Z,56.21
2019-05-05T10:26:07.520Z,57.06
2019-05-05T10:27:07.513Z,57.06
2019-05-05T10:28:07.521Z,56.85
2019-05-05T10:29:07.521Z,55.93
2019-05-05T10:30:10.409Z,56.54
2019-05-05T10:31:07.459Z,57.06
2019-05-05T10:32:08.223Z,57.26
2019-05-05T10:33:07.442Z,57.47
2019-05-05T10:34:07.521Z,57.68
2019-05-05T10:35:08.961Z,56.65
2019-05-05T10:36:07.432Z,57.03
2019-05-05T10:37:07.420Z,56.83
2019-05-05T10:38:07.435Z,56.52
2019-05-05T10:39:07.381Z,56.52
2019-05-05T10:40:07.402Z,57.09
2019-05-05T10:41:07.399Z,58.33
2019-05-05T10:42:07.344Z,58.45
2019-05-05T10:43:07.336Z,58.22
2019-05-05T10:44:07.325Z,58.22
2019-05-05T10:45:07.312Z,57.32
2019-05-05T10:46:07.330Z,54.22
2019-05-05T10:47:07.281Z,55.69
2019-05-05T10:48:07.280Z,56.41
2019-05-05T10:49:07.280Z,57.14
2019-05-05T10:50:07.271Z,57.55
2019-05-05T10:51:07.289Z,57.32
2019-05-05T10:52:07.252Z,56.90
2019-05-05T10:53:07.231Z,55.80
2019-05-05T10:54:07.211Z,56.31
2019-05-05T10:55:07.209Z,55.90
2019-05-05T10:56:07.192Z,55.38
2019-05-05T10:57:07.200Z,55.49
2019-05-05T10:58:07.169Z,55.07
2019-05-05T10:59:07.162Z,55.80
2019-05-05T11:00:12.195Z,55.62
2019-05-05T11:01:08.141Z,56.34
2019-05-05T11:02:07.140Z,56.54
2019-05-05T11:03:07.123Z,57.17
2019-05-05T11:04:07.110Z,57.06
2019-05-05T11:05:07.139Z,56.34
2019-05-05T11:06:07.081Z,56.34
2019-05-05T11:07:07.079Z,56.54
2019-05-05T11:08:07.058Z,56.73
2019-05-05T11:09:07.049Z,57.17
2019-05-05T11:10:07.041Z,58.20
2019-05-05T11:11:07.055Z,58.92
2019-05-05T11:12:07.030Z,60.99
2019-05-05T11:13:07.008Z,62.57
2019-05-05T11:14:06.991Z,64.67
2019-05-05T11:15:06.979Z,66.42
2019-05-05T11:16:06.977Z,68.01
2019-05-05T11:17:06.971Z,69.29
2019-05-05T11:18:06.972Z,70.04
2019-05-05T11:19:06.959Z,71.32
2019-05-05T11:20:06.931Z,72.39
2019-05-05T11:21:06.909Z,72.80
2019-05-05T11:22:06.919Z,74.15
2019-05-05T11:23:06.938Z,75.29
2019-05-05T11:24:07.038Z,75.81
2019-05-05T11:25:06.869Z,76.23
2019-05-05T11:26:06.862Z,76.54
2019-05-05T11:27:06.880Z,76.29
2019-05-05T11:28:06.851Z,76.15
2019-05-05T11:29:06.826Z,75.84
2019-05-05T11:30:06.828Z,73.84
2019-05-05T11:31:06.860Z,72.36
2019-05-05T11:32:06.945Z,73.15
2019-05-05T11:33:06.816Z,72.22
2019-05-05T11:34:06.777Z,71.47
2019-05-05T11:35:06.759Z,71.98
2019-05-05T11:36:06.771Z,71.33
2019-05-05T11:37:06.737Z,70.06
2019-05-05T11:38:06.827Z,71.06
2019-05-05T11:39:06.809Z,70.23
2019-05-05T11:40:06.747Z,68.96
2019-05-05T11:41:06.696Z,68.62
2019-05-05T11:42:06.688Z,68.62
2019-05-05T11:43:06.694Z,66.01
2019-05-05T11:44:06.669Z,63.01
2019-05-05T11:45:06.655Z,59.61
2019-05-05T11:46:06.639Z,61.05
2019-05-05T11:47:06.627Z,61.03
2019-05-05T11:48:06.637Z,59.79
2019-05-05T11:49:06.607Z,61.44
2019-05-05T11:50:06.597Z,58.48
2019-05-05T11:51:06.588Z,61.60
2019-05-05T11:52:06.579Z,62.74
2019-05-05T11:53:06.590Z,60.88
2019-05-05T11:54:06.586Z,62.22
2019-05-05T11:55:11.489Z,63.01
2019-05-05T11:56:07.766Z,62.50
2019-05-05T11:57:06.535Z,62.81
2019-05-05T11:58:06.516Z,62.60
2019-05-05T11:59:06.515Z,62.40
2019-05-05T12:00:06.497Z,62.16
2019-05-05T12:01:06.525Z,61.75
2019-05-05T12:02:06.463Z,61.13
2019-05-05T12:03:06.454Z,60.72
2019-05-05T12:04:06.473Z,60.21
2019-05-05T12:05:06.439Z,60.31
2019-05-05T12:06:06.424Z,59.69
2019-05-05T12:07:06.408Z,59.92
2019-05-05T12:08:06.402Z,60.88
2019-05-05T12:09:06.408Z,61.40
2019-05-05T12:10:06.383Z,60.67
2019-05-05T12:11:06.384Z,61.08
2019-05-05T12:12:06.362Z,60.88
2019-05-05T12:13:06.345Z,60.88
2019-05-05T12:14:06.345Z,61.29
2019-05-05T12:15:06.343Z,60.77
2019-05-05T12:16:06.313Z,60.64
2019-05-05T12:17:06.344Z,58.69
2019-05-05T12:18:06.284Z,58.99
2019-05-05T12:19:06.327Z,60.05
2019-05-05T12:20:06.280Z,60.36
2019-05-05T12:21:06.263Z,60.26
2019-05-05T12:22:06.246Z,59.74
2019-05-05T12:23:06.236Z,60.47
2019-05-05T12:24:06.231Z,60.67
2019-05-05T12:25:06.231Z,60.67
2019-05-05T12:26:06.204Z,61.29
2019-05-05T12:27:06.184Z,61.36
2019-05-05T12:28:06.189Z,60.33
2019-05-05T12:29:06.252Z,60.95
2019-05-05T12:30:06.170Z,61.16
2019-05-05T12:31:06.156Z,60.88
2019-05-05T12:32:06.134Z,61.60
2019-05-05T12:33:06.123Z,61.91
2019-05-05T12:34:06.163Z,61.19
2019-05-05T12:35:06.103Z,60.28
2019-05-05T12:36:06.103Z,61.11
2019-05-05T12:37:06.073Z,60.70
2019-05-05T12:38:06.071Z,60.21
2019-05-05T12:39:06.062Z,61.04
2019-05-05T12:40:06.042Z,61.66
2019-05-05T12:41:06.045Z,62.38
2019-05-05T12:42:06.025Z,63.07
2019-05-05T12:43:06.014Z,60.93
2019-05-05T12:44:06.001Z,61.45
2019-05-05T12:45:05.988Z,61.87
2019-05-05T12:46:05.996Z,61.73
2019-05-05T12:47:05.977Z,61.83
2019-05-05T12:48:05.955Z,61.52
2019-05-05T12:49:06.020Z,60.60
2019-05-05T12:50:05.932Z,60.77
2019-05-05T12:51:05.951Z,60.36
2019-05-05T12:52:05.912Z,60.26